地図

経路データ

SID SEASON NUMBER BASIN SUBBASIN NAME ISO_TIME NATURE LAT LON WMO_WIND WMO_PRES WMO_AGENCY TRACK_TYPE DIST2LAND LANDFALL IFLAG USA_AGENCY USA_ATCF_ID USA_LAT USA_LON USA_RECORD USA_STATUS USA_WIND USA_PRES USA_SSHS USA_R34_NE USA_R34_SE USA_R34_SW USA_R34_NW USA_R50_NE USA_R50_SE USA_R50_SW USA_R50_NW USA_R64_NE USA_R64_SE USA_R64_SW USA_R64_NW USA_POCI USA_ROCI USA_RMW USA_EYE TOKYO_LAT TOKYO_LON TOKYO_GRADE TOKYO_WIND TOKYO_PRES TOKYO_R50_DIR TOKYO_R50_LONG TOKYO_R50_SHORT TOKYO_R30_DIR TOKYO_R30_LONG TOKYO_R30_SHORT TOKYO_LAND CMA_LAT CMA_LON CMA_CAT CMA_WIND CMA_PRES HKO_LAT HKO_LON HKO_CAT HKO_WIND HKO_PRES NEWDELHI_LAT NEWDELHI_LON NEWDELHI_GRADE NEWDELHI_WIND NEWDELHI_PRES NEWDELHI_CI NEWDELHI_DP NEWDELHI_POCI REUNION_LAT REUNION_LON REUNION_TYPE REUNION_WIND REUNION_PRES REUNION_TNUM REUNION_CI REUNION_RMW REUNION_R34_NE REUNION_R34_SE REUNION_R34_SW REUNION_R34_NW REUNION_R50_NE REUNION_R50_SE REUNION_R50_SW REUNION_R50_NW REUNION_R64_NE REUNION_R64_SE REUNION_R64_SW REUNION_R64_NW BOM_LAT BOM_LON BOM_TYPE BOM_WIND BOM_PRES BOM_TNUM BOM_CI BOM_RMW BOM_R34_NE BOM_R34_SE BOM_R34_SW BOM_R34_NW BOM_R50_NE BOM_R50_SE BOM_R50_SW BOM_R50_NW BOM_R64_NE BOM_R64_SE BOM_R64_SW BOM_R64_NW BOM_ROCI BOM_POCI BOM_EYE BOM_POS_METHOD BOM_PRES_METHOD NADI_LAT NADI_LON NADI_CAT NADI_WIND NADI_PRES WELLINGTON_LAT WELLINGTON_LON WELLINGTON_WIND WELLINGTON_PRES DS824_LAT DS824_LON DS824_STAGE DS824_WIND DS824_PRES TD9636_LAT TD9636_LON TD9636_STAGE TD9636_WIND TD9636_PRES TD9635_LAT TD9635_LON TD9635_WIND TD9635_PRES TD9635_ROCI NEUMANN_LAT NEUMANN_LON NEUMANN_CLASS NEUMANN_WIND NEUMANN_PRES MLC_LAT MLC_LON MLC_CLASS MLC_WIND MLC_PRES USA_GUST BOM_GUST BOM_GUST_PER REUNION_GUST REUNION_GUST_PER USA_SEAHGT USA_SEARAD_NE USA_SEARAD_SE USA_SEARAD_SW USA_SEARAD_NW STORM_SPEED STORM_DIR
1995220N14329 1995 43 NA NA FELIX 1995-08-08 00:00:00 TS 14.3000 -30.8000 30 1010 hurdat_atl main 1432 1432 O_____________ hurdat_atl AL071995 14.3000 -30.8000 TD 30 1010 -1 17 285
1995220N14329 1995 43 NA NA FELIX 1995-08-08 03:00:00 TS 14.5155 -31.6320 main 1517 1517 P_____________ AL071995 14.5155 -31.6320 TD 30 1009 -1 17 284
1995220N14329 1995 43 NA NA FELIX 1995-08-08 06:00:00 TS 14.7000 -32.5000 30 1008 hurdat_atl main 1613 1613 O_____________ hurdat_atl AL071995 14.7000 -32.5000 TD 30 1008 -1 18 281
1995220N14329 1995 43 NA NA FELIX 1995-08-08 09:00:00 TS 14.8422 -33.4279 main 1710 1710 P_____________ AL071995 14.8422 -33.4279 TD 30 1007 -1 19 279
1995220N14329 1995 43 NA NA FELIX 1995-08-08 12:00:00 TS 15.0000 -34.4000 30 1007 hurdat_atl main 1817 1817 O_____________ hurdat_atl AL071995 15.0000 -34.4000 TD 30 1007 -1 20 282
1995220N14329 1995 43 NA NA FELIX 1995-08-08 15:00:00 TS 15.2573 -35.3997 main 1924 1924 P_____________ AL071995 15.2573 -35.3997 TD 32 1006 -1 20 285
1995220N14329 1995 43 NA NA FELIX 1995-08-08 18:00:00 TS 15.5000 -36.4000 35 1005 hurdat_atl main 2031 1986 O_____________ hurdat_atl AL071995 15.5000 -36.4000 TS 35 1005 0 19 281
1995220N14329 1995 43 NA NA FELIX 1995-08-08 21:00:00 TS 15.6145 -37.3580 main 1978 1919 P_____________ AL071995 15.6145 -37.3580 TS 37 1004 0 18 276
1995220N14329 1995 43 NA NA FELIX 1995-08-09 00:00:00 TS 15.7000 -38.3000 40 1004 hurdat_atl main 1911 1846 O_____________ hurdat_atl AL071995 15.7000 -38.3000 TS 40 1004 0 19 277
1995220N14329 1995 43 NA NA FELIX 1995-08-09 03:00:00 TS 15.8498 -39.2649 main 1838 1785 P_____________ AL071995 15.8498 -39.2649 TS 42 1003 0 19 279
1995220N14329 1995 43 NA NA FELIX 1995-08-09 06:00:00 TS 16.0000 -40.2000 45 1003 hurdat_atl main 1785 1736 O_____________ hurdat_atl AL071995 16.0000 -40.2000 TS 45 1003 0 17 278
1995220N14329 1995 43 NA NA FELIX 1995-08-09 09:00:00 TS 16.0919 -41.0579 main 1729 1682 P_____________ AL071995 16.0919 -41.0579 TS 45 1002 0 16 277
1995220N14329 1995 43 NA NA FELIX 1995-08-09 12:00:00 TS 16.2000 -41.9000 45 1001 hurdat_atl main 1682 1646 O_____________ hurdat_atl AL071995 16.2000 -41.9000 TS 45 1001 0 17 280
1995220N14329 1995 43 NA NA FELIX 1995-08-09 15:00:00 TS 16.3846 -42.7850 main 1642 1610 P_____________ AL071995 16.3846 -42.7850 TS 45 1000 0 18 283
1995220N14329 1995 43 NA NA FELIX 1995-08-09 18:00:00 TS 16.6000 -43.7000 45 1000 hurdat_atl main 1603 1564 O_____________ hurdat_atl AL071995 16.6000 -43.7000 TS 45 1000 0 18 283
1995220N14329 1995 43 NA NA FELIX 1995-08-09 21:00:00 TS 16.7923 -44.6503 main 1558 1531 P_____________ AL071995 16.7923 -44.6503 TS 47 999 0 19 282
1995220N14329 1995 43 NA NA FELIX 1995-08-10 00:00:00 TS 17.0000 -45.6000 50 998 hurdat_atl main 1525 1498 O_____________ hurdat_atl AL071995 17.0000 -45.6000 TS 50 998 0 18 284
1995220N14329 1995 43 NA NA FELIX 1995-08-10 03:00:00 TS 17.2421 -46.5151 main 1498 1485 P_____________ AL071995 17.2421 -46.5151 TS 52 996 0 18 286
1995220N14329 1995 43 NA NA FELIX 1995-08-10 06:00:00 TS 17.5000 -47.4000 55 995 hurdat_atl main 1487 1473 O_____________ hurdat_atl AL071995 17.5000 -47.4000 TS 55 995 0 17 287
1995220N14329 1995 43 NA NA FELIX 1995-08-10 09:00:00 TS 17.7570 -48.2576 main 1478 1461 P_____________ AL071995 17.7570 -48.2576 TS 57 994 0 17 287
1995220N14329 1995 43 NA NA FELIX 1995-08-10 12:00:00 TS 18.0000 -49.1000 60 993 hurdat_atl main 1463 1450 O_____________ hurdat_atl AL071995 18.0000 -49.1000 TS 60 993 0 17 285
1995220N14329 1995 43 NA NA FELIX 1995-08-10 15:00:00 TS 18.1997 -49.9579 main 1450 1395 P_____________ AL071995 18.1997 -49.9579 TS 60 992 0 17 284
1995220N14329 1995 43 NA NA FELIX 1995-08-10 18:00:00 TS 18.4000 -50.8000 60 991 hurdat_atl main 1395 1342 O_____________ hurdat_atl AL071995 18.4000 -50.8000 TS 60 991 0 16 285
1995220N14329 1995 43 NA NA FELIX 1995-08-10 21:00:00 TS 18.6272 -51.6153 main 1342 1302 P_____________ AL071995 18.6272 -51.6153 TS 62 989 0 16 288
1995220N14329 1995 43 NA NA FELIX 1995-08-11 00:00:00 TS 18.9000 -52.4000 65 987 hurdat_atl main 1302 1273 O_____________ hurdat_atl AL071995 18.9000 -52.4000 HU 65 987 1 16 292
1995220N14329 1995 43 NA NA FELIX 1995-08-11 03:00:00 TS 19.2271 -53.1578 main 1267 1237 P_____________ AL071995 19.2271 -53.1578 HU 67 983 1 16 296
1995220N14329 1995 43 NA NA FELIX 1995-08-11 06:00:00 TS 19.6000 -53.9000 70 980 hurdat_atl main 1237 1167 O_____________ hurdat_atl AL071995 19.6000 -53.9000 HU 70 980 1 16 298
1995220N14329 1995 43 NA NA FELIX 1995-08-11 09:00:00 TS 19.9850 -54.6801 main 1158 1092 P_____________ AL071995 19.9850 -54.6801 HU 75 976 1 16 300
1995220N14329 1995 43 NA NA FELIX 1995-08-11 12:00:00 TS 20.4000 -55.4000 80 972 hurdat_atl main 1092 1050 O_____________ hurdat_atl AL071995 20.4000 -55.4000 HU 80 972 1 15 306
1995220N14329 1995 43 NA NA FELIX 1995-08-11 15:00:00 TS 20.8493 -55.9655 main 1040 1005 P_____________ AL071995 20.8493 -55.9655 HU 85 968 2 14 311
1995220N14329 1995 43 NA NA FELIX 1995-08-11 18:00:00 TS 21.3000 -56.5000 90 965 hurdat_atl main 1005 961 O_____________ hurdat_atl AL071995 21.3000 -56.5000 HU 90 965 2 14 308
1995220N14329 1995 43 NA NA FELIX 1995-08-11 21:00:00 TS 21.7075 -57.1428 main 961 912 P_____________ AL071995 21.7075 -57.1428 HU 95 960 2 15 304
1995220N14329 1995 43 NA NA FELIX 1995-08-12 00:00:00 TS 22.1000 -57.8000 100 955 hurdat_atl main 912 878 O_____________ hurdat_atl AL071995 22.1000 -57.8000 HU 100 955 3 14 304
1995220N14329 1995 43 NA NA FELIX 1995-08-12 03:00:00 TS 22.5072 -58.4078 main 878 851 P_____________ AL071995 22.5072 -58.4078 HU 105 949 3 14 306
1995220N14329 1995 43 NA NA FELIX 1995-08-12 06:00:00 TS 22.9000 -59.0000 110 943 hurdat_atl main 851 822 O_____________ hurdat_atl AL071995 22.9000 -59.0000 HU 110 943 3 14 304
1995220N14329 1995 43 NA NA FELIX 1995-08-12 09:00:00 TS 23.2576 -59.6302 main 829 806 P_____________ AL071995 23.2576 -59.6302 HU 112 937 3 13 302
1995220N14329 1995 43 NA NA FELIX 1995-08-12 12:00:00 TS 23.6000 -60.2000 115 932 hurdat_atl main 807 800 O_____________ hurdat_atl AL071995 23.6000 -60.2000 HU 115 932 4 12 306
1995220N14329 1995 43 NA NA FELIX 1995-08-12 15:00:00 TS 23.9422 -60.6454 main 804 799 P_____________ AL071995 23.9422 -60.6454 HU 117 930 4 10 314
1995220N14329 1995 43 NA NA FELIX 1995-08-12 18:00:00 TS 24.3000 -61.0000 120 929 hurdat_atl main 813 813 O_____________ hurdat_atl AL071995 24.3000 -61.0000 HU 120 929 4 10 320
1995220N14329 1995 43 NA NA FELIX 1995-08-12 21:00:00 TS 24.6924 -61.3375 main 832 827 P_____________ AL071995 24.6924 -61.3375 HU 117 929 4 10 326
1995220N14329 1995 43 NA NA FELIX 1995-08-13 00:00:00 TS 25.1000 -61.6000 115 930 hurdat_atl main 855 855 O_____________ hurdat_atl AL071995 25.1000 -61.6000 HU 115 930 4 9 335
1995220N14329 1995 43 NA NA FELIX 1995-08-13 03:00:00 TS 25.5074 -61.7654 main 885 885 P_____________ AL071995 25.5074 -61.7654 HU 110 933 3 8 341
1995220N14329 1995 43 NA NA FELIX 1995-08-13 06:00:00 TS 25.9000 -61.9000 105 937 hurdat_atl main 920 920 O_____________ hurdat_atl AL071995 25.9000 -61.9000 HU 105 937 3 8 337
1995220N14329 1995 43 NA NA FELIX 1995-08-13 09:00:00 TS 26.2501 -62.1223 main 953 949 P_____________ AL071995 26.2501 -62.1223 HU 102 939 3 8 333
1995220N14329 1995 43 NA NA FELIX 1995-08-13 12:00:00 TS 26.6000 -62.3000 100 942 hurdat_atl main 977 977 O_____________ hurdat_atl AL071995 26.6000 -62.3000 HU 100 942 3 8 347
1995220N14329 1995 43 NA NA FELIX 1995-08-13 15:00:00 TS 26.9924 -62.3154 main 1019 1019 P_____________ AL071995 26.9924 -62.3154 HU 97 944 3 8 1
1995220N14329 1995 43 NA NA FELIX 1995-08-13 18:00:00 TS 27.4000 -62.3000 95 947 hurdat_atl main 1061 1061 O_____________ hurdat_atl AL071995 27.4000 -62.3000 HU 95 947 2 8 356
1995220N14329 1995 43 NA NA FELIX 1995-08-13 21:00:00 TS 27.8000 -62.3701 main 1100 1100 P_____________ AL071995 27.8000 -62.3701 HU 92 947 2 8 347
1995220N14329 1995 43 NA NA FELIX 1995-08-14 00:00:00 TS 28.2000 -62.5000 90 948 hurdat_atl main 1139 1139 O_____________ hurdat_atl AL071995 28.2000 -62.5000 HU 90 948 2 8 341
1995220N14329 1995 43 NA NA FELIX 1995-08-14 03:00:00 TS 28.5925 -62.6776 main 1177 1177 P_____________ AL071995 28.5925 -62.6776 HU 85 951 2 9 336
1995220N14329 1995 43 NA NA FELIX 1995-08-14 06:00:00 TS 29.0000 -62.9000 80 954 hurdat_atl main 1215 1215 O_____________ hurdat_atl AL071995 29.0000 -62.9000 HU 80 954 1 9 335
1995220N14329 1995 43 NA NA FELIX 1995-08-14 09:00:00 TS 29.4499 -63.1277 main 1255 1255 P_____________ AL071995 29.4499 -63.1277 HU 80 958 1 10 334
1995220N14329 1995 43 NA NA FELIX 1995-08-14 12:00:00 TS 29.9000 -63.4000 80 962 hurdat_atl main 1304 1256 O_____________ hurdat_atl AL071995 29.9000 -63.4000 HU 80 962 1 10 330
1995220N14329 1995 43 NA NA FELIX 1995-08-14 15:00:00 TS 30.3223 -63.7127 main 1256 1200 P_____________ AL071995 30.3223 -63.7127 HU 77 962 1 10 323
1995220N14329 1995 43 NA NA FELIX 1995-08-14 18:00:00 TS 30.7000 -64.1000 75 962 hurdat_atl main 1200 1150 O_____________ hurdat_atl AL071995 30.7000 -64.1000 HU 75 962 1 10 313
1995220N14329 1995 43 NA NA FELIX 1995-08-14 21:00:00 TS 31.0149 -64.5704 main 1141 1083 P_____________ AL071995 31.0149 -64.5704 HU 75 962 1 10 305
1995220N14329 1995 43 NA NA FELIX 1995-08-15 00:00:00 TS 31.3000 -65.1000 75 962 hurdat_atl main 1083 1026 O_____________ hurdat_atl AL071995 31.3000 -65.1000 HU 75 962 1 11 303
1995220N14329 1995 43 NA NA FELIX 1995-08-15 03:00:00 TS 31.5998 -65.6354 main 1026 960 P_____________ AL071995 31.5998 -65.6354 HU 75 963 1 11 303
1995220N14329 1995 43 NA NA FELIX 1995-08-15 06:00:00 TS 31.9000 -66.2000 75 964 hurdat_atl main 960 903 O_____________ hurdat_atl AL071995 31.9000 -66.2000 HU 75 964 1 11 302
1995220N14329 1995 43 NA NA FELIX 1995-08-15 09:00:00 TS 32.1996 -66.7780 main 894 829 P_____________ AL071995 32.1996 -66.7780 HU 72 966 1 12 301
1995220N14329 1995 43 NA NA FELIX 1995-08-15 12:00:00 TS 32.5000 -67.4000 70 968 hurdat_atl main 829 755 O_____________ hurdat_atl AL071995 32.5000 -67.4000 HU 70 968 1 13 299
1995220N14329 1995 43 NA NA FELIX 1995-08-15 15:00:00 TS 32.8150 -68.0924 main 755 682 P_____________ AL071995 32.8150 -68.0924 HU 70 966 1 13 297
1995220N14329 1995 43 NA NA FELIX 1995-08-15 18:00:00 TS 33.1000 -68.8000 70 965 hurdat_atl main 682 623 O_____________ hurdat_atl AL071995 33.1000 -68.8000 HU 70 965 1 13 293
1995220N14329 1995 43 NA NA FELIX 1995-08-15 21:00:00 TS 33.3071 -69.4658 main 614 555 P_____________ AL071995 33.3071 -69.4658 HU 70 964 1 12 290
1995220N14329 1995 43 NA NA FELIX 1995-08-16 00:00:00 TS 33.5000 -70.1000 70 963 hurdat_atl main 555 496 O_____________ hurdat_atl AL071995 33.5000 -70.1000 HU 70 963 1 11 292
1995220N14329 1995 43 NA NA FELIX 1995-08-16 03:00:00 TS 33.7347 -70.7153 main 496 431 P_____________ AL071995 33.7347 -70.7153 HU 70 964 1 11 297
1995220N14329 1995 43 NA NA FELIX 1995-08-16 06:00:00 TS 34.0000 -71.3000 70 966 hurdat_atl main 431 367 O_____________ hurdat_atl AL071995 34.0000 -71.3000 HU 70 966 1 12 301
1995220N14329 1995 43 NA NA FELIX 1995-08-16 09:00:00 TS 34.3227 -71.9169 main 367 311 P_____________ AL071995 34.3227 -71.9169 HU 70 967 1 11 303
1995220N14329 1995 43 NA NA FELIX 1995-08-16 12:00:00 TS 34.6000 -72.4000 70 968 hurdat_atl main 311 289 O_____________ hurdat_atl AL071995 34.6000 -72.4000 HU 70 968 1 7 304
1995220N14329 1995 43 NA NA FELIX 1995-08-16 15:00:00 TS 34.7071 -72.6183 main 289 276 P_____________ AL071995 34.7071 -72.6183 HU 70 969 1 3 309
1995220N14329 1995 43 NA NA FELIX 1995-08-16 18:00:00 TS 34.8000 -72.7000 70 970 hurdat_atl main 276 259 O_____________ hurdat_atl AL071995 34.8000 -72.7000 HU 70 970 1 4 333
1995220N14329 1995 43 NA NA FELIX 1995-08-16 21:00:00 TS 35.0425 -72.8224 main 259 241 P_____________ AL071995 35.0425 -72.8224 HU 67 969 1 5 342
1995220N14329 1995 43 NA NA FELIX 1995-08-17 00:00:00 TS 35.3000 -72.9000 65 968 hurdat_atl main 241 238 O_____________ hurdat_atl AL071995 35.3000 -72.9000 HU 65 968 1 4 348
1995220N14329 1995 43 NA NA FELIX 1995-08-17 03:00:00 TS 35.4500 -72.9300 main 238 235 P_____________ AL071995 35.4500 -72.9300 HU 65 969 1 3 0
1995220N14329 1995 43 NA NA FELIX 1995-08-17 06:00:00 TS 35.6000 -72.9000 65 971 hurdat_atl main 235 233 O_____________ hurdat_atl AL071995 35.6000 -72.9000 HU 65 971 1 4 11
1995220N14329 1995 43 NA NA FELIX 1995-08-17 09:00:00 TS 35.8424 -72.8374 main 242 242 P_____________ AL071995 35.8424 -72.8374 HU 65 971 1 5 18
1995220N14329 1995 43 NA NA FELIX 1995-08-17 12:00:00 TS 36.1000 -72.7000 65 972 hurdat_atl main 253 253 O_____________ hurdat_atl AL071995 36.1000 -72.7000 HU 65 972 1 6 31
1995220N14329 1995 43 NA NA FELIX 1995-08-17 15:00:00 TS 36.3149 -72.4875 main 274 274 P_____________ AL071995 36.3149 -72.4875 HU 65 972 1 6 45
1995220N14329 1995 43 NA NA FELIX 1995-08-17 18:00:00 TS 36.5000 -72.2000 65 973 hurdat_atl main 305 305 O_____________ hurdat_atl AL071995 36.5000 -72.2000 HU 65 973 1 6 55
1995220N14329 1995 43 NA NA FELIX 1995-08-17 21:00:00 TS 36.6574 -71.8723 main 333 333 P_____________ AL071995 36.6574 -71.8723 HU 65 973 1 6 62
1995220N14329 1995 43 NA NA FELIX 1995-08-18 00:00:00 TS 36.8000 -71.5000 65 973 hurdat_atl main 357 357 O_____________ hurdat_atl AL071995 36.8000 -71.5000 HU 65 973 1 7 63
1995220N14329 1995 43 NA NA FELIX 1995-08-18 03:00:00 TS 36.9724 -71.1077 main 379 379 P_____________ AL071995 36.9724 -71.1077 HU 65 972 1 7 65
1995220N14329 1995 43 NA NA FELIX 1995-08-18 06:00:00 TS 37.1000 -70.7000 65 971 hurdat_atl main 408 408 O_____________ hurdat_atl AL071995 37.1000 -70.7000 HU 65 971 1 7 75
1995220N14329 1995 43 NA NA FELIX 1995-08-18 09:00:00 TS 37.1372 -70.3149 main 438 438 P_____________ AL071995 37.1372 -70.3149 HU 65 970 1 6 90
1995220N14329 1995 43 NA NA FELIX 1995-08-18 12:00:00 TS 37.1000 -69.9000 65 970 hurdat_atl main 466 466 O_____________ hurdat_atl AL071995 37.1000 -69.9000 HU 65 970 1 7 99
1995220N14329 1995 43 NA NA FELIX 1995-08-18 15:00:00 TS 37.0226 -69.3999 main 505 505 P_____________ AL071995 37.0226 -69.3999 HU 67 970 1 8 104
1995220N14329 1995 43 NA NA FELIX 1995-08-18 18:00:00 TS 36.9000 -68.9000 70 971 hurdat_atl main 534 534 O_____________ hurdat_atl AL071995 36.9000 -68.9000 HU 70 971 1 8 108
1995220N14329 1995 43 NA NA FELIX 1995-08-18 21:00:00 TS 36.7725 -68.4475 main 559 559 P_____________ AL071995 36.7725 -68.4475 HU 70 970 1 7 115
1995220N14329 1995 43 NA NA FELIX 1995-08-19 00:00:00 TS 36.6000 -68.1000 70 970 hurdat_atl main 589 589 O_____________ hurdat_atl AL071995 36.6000 -68.1000 HU 70 970 1 6 134
1995220N14329 1995 43 NA NA FELIX 1995-08-19 03:00:00 TS 36.3573 -67.9127 main 616 616 P_____________ AL071995 36.3573 -67.9127 HU 70 970 1 6 154
1995220N14329 1995 43 NA NA FELIX 1995-08-19 06:00:00 TS 36.1000 -67.8000 70 970 hurdat_atl main 651 651 O_____________ hurdat_atl AL071995 36.1000 -67.8000 HU 70 970 1 5 155
1995220N14329 1995 43 NA NA FELIX 1995-08-19 09:00:00 TS 35.8850 -67.6350 main 678 678 P_____________ AL071995 35.8850 -67.6350 HU 70 970 1 5 149
1995220N14329 1995 43 NA NA FELIX 1995-08-19 12:00:00 TS 35.7000 -67.5000 70 971 hurdat_atl main 702 702 O_____________ hurdat_atl AL071995 35.7000 -67.5000 HU 70 971 1 4 153
1995220N14329 1995 43 NA NA FELIX 1995-08-19 15:00:00 TS 35.5425 -67.4201 main 726 726 P_____________ AL071995 35.5425 -67.4201 HU 70 972 1 3 166
1995220N14329 1995 43 NA NA FELIX 1995-08-19 18:00:00 TS 35.4000 -67.4000 70 973 hurdat_atl main 731 731 O_____________ hurdat_atl AL071995 35.4000 -67.4000 HU 70 973 1 3 0
1995220N14329 1995 43 NA NA FELIX 1995-08-19 21:00:00 TS 35.2349 -67.4125 main 734 726 P_____________ AL071995 35.2349 -67.4125 HU 67 974 1 3 194
1995220N14329 1995 43 NA NA FELIX 1995-08-20 00:00:00 TS 35.1000 -67.5000 65 976 hurdat_atl main 726 710 O_____________ hurdat_atl AL071995 35.1000 -67.5000 HU 65 976 1 3 223
1995220N14329 1995 43 NA NA FELIX 1995-08-20 03:00:00 TS 34.9976 -67.6852 main 710 692 P_____________ AL071995 34.9976 -67.6852 HU 62 977 0 3 253
1995220N14329 1995 43 NA NA FELIX 1995-08-20 06:00:00 TS 35.0000 -67.9000 60 979 hurdat_atl main 692 673 O_____________ hurdat_atl AL071995 35.0000 -67.9000 TS 60 979 0 4 296
1995220N14329 1995 43 NA NA FELIX 1995-08-20 09:00:00 TS 35.1550 -68.0723 main 671 659 P_____________ AL071995 35.1550 -68.0723 TS 60 980 0 5 329
1995220N14329 1995 43 NA NA FELIX 1995-08-20 12:00:00 TS 35.4000 -68.2000 60 982 hurdat_atl main 659 648 O_____________ hurdat_atl AL071995 35.4000 -68.2000 TS 60 982 0 5 338
1995220N14329 1995 43 NA NA FELIX 1995-08-20 15:00:00 TS 35.6274 -68.3096 main 648 647 P_____________ AL071995 35.6274 -68.3096 TS 60 983 0 5 351
1995220N14329 1995 43 NA NA FELIX 1995-08-20 18:00:00 TS 35.9000 -68.3000 60 985 hurdat_atl main 647 631 O_____________ hurdat_atl AL071995 35.9000 -68.3000 TS 60 985 0 6 15
1995220N14329 1995 43 NA NA FELIX 1995-08-20 21:00:00 TS 36.2049 -68.1171 main 631 598 P_____________ AL071995 36.2049 -68.1171 TS 60 985 0 8 30
1995220N14329 1995 43 NA NA FELIX 1995-08-21 00:00:00 TS 36.6000 -67.8000 60 986 hurdat_atl main 598 554 O_____________ hurdat_atl AL071995 36.6000 -67.8000 TS 60 986 0 11 32
1995220N14329 1995 43 NA NA FELIX 1995-08-21 03:00:00 TS 37.1050 -67.4298 main 558 513 P_____________ AL071995 37.1050 -67.4298 TS 57 987 0 13 30
1995220N14329 1995 43 NA NA FELIX 1995-08-21 06:00:00 TS 37.7000 -67.0000 55 988 hurdat_atl main 513 470 O_____________ hurdat_atl AL071995 37.7000 -67.0000 TS 55 988 0 13 26
1995220N14329 1995 43 NA NA FELIX 1995-08-21 09:00:00 TS 38.3097 -66.6945 main 470 443 P_____________ AL071995 38.3097 -66.6945 TS 52 988 0 15 29
1995220N14329 1995 43 NA NA FELIX 1995-08-21 12:00:00 TS 39.0000 -66.1000 50 989 hurdat_atl main 445 423 O_____________ hurdat_atl AL071995 39.0000 -66.1000 TS 50 989 0 20 44
1995220N14329 1995 43 NA NA FELIX 1995-08-21 15:00:00 TS 39.7554 -64.8932 main 412 358 P_____________ AL071995 39.7554 -64.8932 TS 50 988 0 27 53
1995220N14329 1995 43 NA NA FELIX 1995-08-21 18:00:00 TS 40.6000 -63.3000 50 988 hurdat_atl main 362 353 O_____________ hurdat_atl AL071995 40.6000 -63.3000 TS 50 988 0 30 55
1995220N14329 1995 43 NA NA FELIX 1995-08-21 21:00:00 TS 41.5180 -61.6359 main 360 323 P_____________ AL071995 41.5180 -61.6359 TS 50 987 0 32 54
1995220N14329 1995 43 NA NA FELIX 1995-08-22 00:00:00 TS 42.5000 -59.8000 50 987 hurdat_atl main 317 300 O_____________ hurdat_atl AL071995 42.5000 -59.8000 TS 50 987 0 34 55
1995220N14329 1995 43 NA NA FELIX 1995-08-22 03:00:00 TS 43.4646 -57.9011 main 305 267 P_____________ AL071995 43.4646 -57.9011 TS 50 986 0 35 55
1995220N14329 1995 43 NA NA FELIX 1995-08-22 06:00:00 TS 44.5000 -55.8000 50 986 hurdat_atl main 255 111 O_____________ hurdat_atl AL071995 44.5000 -55.8000 TS 50 986 0 39 56
1995220N14329 1995 43 NA NA FELIX 1995-08-22 09:00:00 TS 45.6354 -53.3584 main 111 80 P_____________ AL071995 45.6354 -53.3584 TS 50 985 0 42 57
1995220N14329 1995 43 NA NA FELIX 1995-08-22 12:00:00 TS 46.8000 -50.8000 50 985 hurdat_atl main 156 156 O_____________ hurdat_atl AL071995 46.8000 -50.8000 TS 50 985 0 41 56
1995220N14329 1995 43 NA NA FELIX 1995-08-22 15:00:00 TS 47.9281 -48.4267 main 316 316 P_____________ AL071995 47.9281 -48.4267 TS 50 985 0 39 56
1995220N14329 1995 43 NA NA FELIX 1995-08-22 18:00:00 ET 49.0000 -46.0000 50 985 hurdat_atl main 507 507 O_____________ hurdat_atl AL071995 49.0000 -46.0000 EX 50 985 -4 39 60
1995220N14329 1995 43 NA NA FELIX 1995-08-22 21:00:00 ET 49.8625 -43.2441 main 724 724 P_____________ AL071995 49.8625 -43.2441 EX 50 985 -4 40 63
1995220N14329 1995 43 NA NA FELIX 1995-08-23 00:00:00 ET 50.8000 -40.5000 50 985 hurdat_atl main 930 930 O_____________ hurdat_atl AL071995 50.8000 -40.5000 EX 50 985 -4 41 57
1995220N14329 1995 43 NA NA FELIX 1995-08-23 03:00:00 ET 52.1014 -37.7211 main 945 869 P_____________ AL071995 52.1014 -37.7211 EX 50 985 -4 41 49
1995220N14329 1995 43 NA NA FELIX 1995-08-23 06:00:00 ET 53.5000 -35.5000 50 985 hurdat_atl main 862 782 O_____________ hurdat_atl AL071995 53.5000 -35.5000 EX 50 985 -4 33 35
1995220N14329 1995 43 NA NA FELIX 1995-08-23 09:00:00 ET 54.7898 -34.5631 main 773 701 P_____________ AL071995 54.7898 -34.5631 EX 50 985 -4 26 19
1995220N14329 1995 43 NA NA FELIX 1995-08-23 12:00:00 ET 56.0000 -34.0000 50 986 hurdat_atl main 698 677 O_____________ hurdat_atl AL071995 56.0000 -34.0000 EX 50 986 -4 25 24
1995220N14329 1995 43 NA NA FELIX 1995-08-23 15:00:00 ET 57.0702 -32.7545 main 678 678 P_____________ AL071995 57.0702 -32.7545 EX 50 986 -4 26 39
1995220N14329 1995 43 NA NA FELIX 1995-08-23 18:00:00 ET 58.0000 -31.0000 50 987 hurdat_atl main 724 642 O_____________ hurdat_atl AL071995 58.0000 -31.0000 EX 50 987 -4 28 50
1995220N14329 1995 43 NA NA FELIX 1995-08-23 21:00:00 ET 58.8604 -28.7309 main 627 509 P_____________ AL071995 58.8604 -28.7309 EX 50 987 -4 30 60
1995220N14329 1995 43 NA NA FELIX 1995-08-24 00:00:00 ET 59.5000 -26.0000 50 988 hurdat_atl main 506 438 O_____________ hurdat_atl AL071995 59.5000 -26.0000 EX 50 988 -4 30 71
1995220N14329 1995 43 NA NA FELIX 1995-08-24 03:00:00 ET 59.8598 -23.0641 main 426 384 P_____________ AL071995 59.8598 -23.0641 EX 47 988 -4 30 81
1995220N14329 1995 43 NA NA FELIX 1995-08-24 06:00:00 ET 60.0000 -20.0000 45 988 hurdat_atl main 382 376 O_____________ hurdat_atl AL071995 60.0000 -20.0000 EX 45 988 -4 30 87
1995220N14329 1995 43 NA NA FELIX 1995-08-24 09:00:00 ET 60.0278 -17.0269 main 386 386 P_____________ AL071995 60.0278 -17.0269 EX 42 988 -4 30 90
1995220N14329 1995 43 NA NA FELIX 1995-08-24 12:00:00 ET 60.0000 -14.0000 40 989 hurdat_atl main 444 292 O_____________ hurdat_atl AL071995 60.0000 -14.0000 EX 40 989 -4 31 93
1995220N14329 1995 43 NA NA FELIX 1995-08-24 15:00:00 ET 59.8836 -10.7538 main 287 186 P_____________ AL071995 59.8836 -10.7538 EX 37 989 -4 32 90
1995220N14329 1995 43 NA NA FELIX 1995-08-24 18:00:00 ET 60.0000 -7.50000 35 990 hurdat_atl main 185 180 O_____________ hurdat_atl AL071995 60.0000 -7.50000 EX 35 990 -4 33 77
1995220N14329 1995 43 NA NA FELIX 1995-08-24 21:00:00 ET 60.6138 -4.29923 main 226 226 P_____________ AL071995 60.6138 -4.29923 EX 35 991 -4 35 65
1995220N14329 1995 43 NA NA FELIX 1995-08-25 00:00:00 ET 61.5000 -1.00000 35 992 hurdat_atl main 315 O_____________ hurdat_atl AL071995 61.5000 -1.00000 EX 35 992 -4 36 61

IBTrACS Databaseについて

本データベースは、米国NOAAが公開する1842年以降の世界の熱帯低気圧のベストトラックデータアーカイブInternational Best Track Archive for Climate Stewardship (IBTrACS)を、ウェブで閲覧しやすい形式に変換したものです。

最終更新日:2021-11-26